createdAt,value
2022-09-06T00:01:07.843Z,2.22
2022-09-06T00:03:35.168Z,2.35
2022-09-06T00:06:06.664Z,1.90
2022-09-06T00:08:33.904Z,2.28
2022-09-06T00:11:01.550Z,2.05
2022-09-06T00:13:29.185Z,2.10
2022-09-06T00:15:56.547Z,2.00
2022-09-06T00:18:23.941Z,1.77
2022-09-06T00:20:51.230Z,1.92
2022-09-06T00:23:18.518Z,2.42
2022-09-06T00:25:45.830Z,1.98
2022-09-06T00:28:13.116Z,1.80
2022-09-06T00:30:40.417Z,2.05
2022-09-06T00:33:07.777Z,2.33
2022-09-06T00:35:35.095Z,2.35
2022-09-06T00:38:02.753Z,2.30
2022-09-06T00:40:31.266Z,2.72
2022-09-06T00:42:58.836Z,2.78
2022-09-06T00:45:26.878Z,2.85
2022-09-06T00:47:54.174Z,2.10
2022-09-06T00:50:21.481Z,2.10
2022-09-06T00:52:49.878Z,1.95
2022-09-06T00:55:17.705Z,2.30
2022-09-06T00:57:46.472Z,2.40
2022-09-06T01:00:16.088Z,1.85
2022-09-06T01:02:43.651Z,2.10
2022-09-06T01:05:11.695Z,2.08
2022-09-06T01:07:52.136Z,2.17
2022-09-06T01:10:28.094Z,2.10
2022-09-06T01:13:10.713Z,1.83
2022-09-06T01:15:53.603Z,2.45
2022-09-06T01:18:20.875Z,2.05
2022-09-06T01:21:06.984Z,2.10
2022-09-06T01:23:37.014Z,2.10
2022-09-06T01:26:18.432Z,2.30
2022-09-06T01:28:46.611Z,2.78
2022-09-06T01:31:19.707Z,2.22
2022-09-06T01:33:51.818Z,2.28
2022-09-06T01:36:21.577Z,2.45
2022-09-06T01:38:48.788Z,2.10
2022-09-06T01:41:16.021Z,2.03
2022-09-06T01:43:45.326Z,2.13
2022-09-06T01:46:21.739Z,2.00
2022-09-06T01:49:09.248Z,1.77
2022-09-06T01:51:54.867Z,2.42
2022-09-06T01:54:37.580Z,2.15
2022-09-06T01:57:04.760Z,2.28
2022-09-06T01:59:50.687Z,2.30
2022-09-06T02:02:18.084Z,2.35
2022-09-06T02:04:51.678Z,3.20
2022-09-06T02:07:21.596Z,2.90
2022-09-06T02:09:51.775Z,2.10
2022-09-06T02:12:20.065Z,2.63
2022-09-06T02:15:07.620Z,2.50
2022-09-06T02:17:36.670Z,2.67
2022-09-06T02:20:09.252Z,3.28
2022-09-06T02:22:41.205Z,2.28
2022-09-06T02:25:10.058Z,2.67
2022-09-06T02:27:37.720Z,2.75
2022-09-06T02:30:06.269Z,2.80
2022-09-06T02:32:35.706Z,3.15
2022-09-06T02:35:07.544Z,2.53
2022-09-06T02:37:34.977Z,3.13
2022-09-06T02:40:02.343Z,2.85
2022-09-06T02:42:29.768Z,2.70
2022-09-06T02:44:57.176Z,3.53
2022-09-06T02:47:24.655Z,2.67
2022-09-06T02:49:51.893Z,3.53
2022-09-06T02:52:19.142Z,3.17
2022-09-06T02:54:46.653Z,3.13
2022-09-06T02:57:14.177Z,3.40
2022-09-06T02:59:41.461Z,2.75
2022-09-06T03:02:08.800Z,3.10
2022-09-06T03:04:36.088Z,2.65
2022-09-06T03:07:03.365Z,3.03
2022-09-06T03:09:30.579Z,2.88
2022-09-06T03:11:57.848Z,2.75
2022-09-06T03:14:25.114Z,2.60
2022-09-06T03:16:52.397Z,3.42
2022-09-06T03:19:20.163Z,2.85
2022-09-06T03:21:47.438Z,2.60
2022-09-06T03:24:14.738Z,3.20
2022-09-06T03:26:42.057Z,2.60
2022-09-06T03:29:09.274Z,2.55
2022-09-06T03:31:36.504Z,2.88
2022-09-06T03:34:05.333Z,2.53
2022-09-06T03:36:34.269Z,3.45
2022-09-06T03:39:01.527Z,2.80
2022-09-06T03:41:28.769Z,2.50
2022-09-06T03:43:56.168Z,3.38
2022-09-06T03:46:23.487Z,3.95
2022-09-06T03:48:50.788Z,4.35
2022-09-06T03:51:18.084Z,4.43
2022-09-06T03:53:45.331Z,4.75
2022-09-06T03:56:12.608Z,4.53
2022-09-06T03:58:39.845Z,4.40
2022-09-06T04:01:08.283Z,4.53
2022-09-06T04:03:35.985Z,4.47
2022-09-06T04:06:03.652Z,3.80
2022-09-06T04:08:31.356Z,4.43
2022-09-06T04:10:59.366Z,3.63
2022-09-06T04:13:29.199Z,4.03
2022-09-06T04:15:56.611Z,3.60
2022-09-06T04:18:24.351Z,3.33
2022-09-06T04:20:52.696Z,4.20
2022-09-06T04:23:20.358Z,3.20
2022-09-06T04:25:48.256Z,3.92
2022-09-06T04:28:15.942Z,3.47
2022-09-06T04:30:43.240Z,3.10
2022-09-06T04:33:10.569Z,3.17
2022-09-06T04:35:38.152Z,3.88
2022-09-06T04:38:05.464Z,2.53
2022-09-06T04:40:32.781Z,3.35
2022-09-06T04:43:00.232Z,3.33
2022-09-06T04:45:27.552Z,3.65
2022-09-06T04:47:54.901Z,4.07
2022-09-06T04:50:22.124Z,2.83
2022-09-06T04:52:49.365Z,2.83
2022-09-06T04:55:16.745Z,2.92
2022-09-06T04:57:46.642Z,3.03
2022-09-06T05:00:16.962Z,2.83
2022-09-06T05:02:45.173Z,2.60
2022-09-06T05:05:12.582Z,3.10
2022-09-06T05:07:39.849Z,2.90
2022-09-06T05:10:07.280Z,2.88
2022-09-06T05:12:34.942Z,2.22
2022-09-06T05:15:02.320Z,3.45
2022-09-06T05:17:29.584Z,2.58
2022-09-06T05:19:56.829Z,3.40
2022-09-06T05:22:24.033Z,3.00
2022-09-06T05:24:51.310Z,3.22
2022-09-06T05:27:18.548Z,2.30
2022-09-06T05:29:45.786Z,2.13
2022-09-06T05:32:13.008Z,2.63
2022-09-06T05:34:40.483Z,2.60
2022-09-06T05:37:07.746Z,2.83
2022-09-06T05:39:35.037Z,2.85
2022-09-06T05:42:06.639Z,2.03
2022-09-06T05:44:37.275Z,2.15
2022-09-06T05:47:04.962Z,2.13
2022-09-06T05:49:32.981Z,2.05
2022-09-06T05:52:00.385Z,2.03
2022-09-06T05:54:27.738Z,2.08
2022-09-06T05:56:55.000Z,2.40
2022-09-06T05:59:22.322Z,2.47
2022-09-06T06:01:50.449Z,1.95
2022-09-06T06:04:18.688Z,2.25
2022-09-06T06:06:46.812Z,1.70
2022-09-06T06:09:14.682Z,1.40
2022-09-06T06:11:43.648Z,1.83
2022-09-06T06:14:11.190Z,1.60
2022-09-06T06:16:38.645Z,1.30
2022-09-06T06:19:06.116Z,1.13
2022-09-06T06:21:34.202Z,1.00
2022-09-06T06:24:02.465Z,1.35
2022-09-06T06:26:31.430Z,2.25
2022-09-06T06:29:01.826Z,1.30
2022-09-06T06:31:30.230Z,1.10
2022-09-06T06:33:58.343Z,1.42
2022-09-06T06:36:26.826Z,1.63
2022-09-06T06:38:55.189Z,1.10
2022-09-06T06:41:26.972Z,1.10
2022-09-06T06:43:54.860Z,1.20
2022-09-06T06:46:22.718Z,1.00
2022-09-06T06:48:54.151Z,1.10
2022-09-06T06:51:23.149Z,0.85
2022-09-06T06:53:50.482Z,1.27
2022-09-06T06:56:26.197Z,1.20
2022-09-06T06:58:54.691Z,1.00
2022-09-06T07:01:23.153Z,1.85
2022-09-06T07:03:51.010Z,1.20
2022-09-06T07:06:19.734Z,0.88
2022-09-06T07:08:47.513Z,1.15
2022-09-06T07:11:16.112Z,1.13
2022-09-06T07:13:43.369Z,1.00
2022-09-06T07:16:10.687Z,1.00
2022-09-06T07:18:42.047Z,0.90
2022-09-06T07:24:10.683Z,0.98
2022-09-06T07:26:39.584Z,1.00
2022-09-06T07:29:07.581Z,1.23
2022-09-06T07:34:25.137Z,1.13
2022-09-06T07:36:56.165Z,1.00
2022-09-06T07:39:23.851Z,1.10
2022-09-06T07:41:51.597Z,1.05
2022-09-06T07:44:18.867Z,1.40
2022-09-06T07:46:46.373Z,1.17
2022-09-06T07:49:13.721Z,1.10
2022-09-06T07:51:41.100Z,1.10
2022-09-06T07:56:55.764Z,1.08
2022-09-06T07:59:23.053Z,1.27
2022-09-06T08:01:50.436Z,1.52
2022-09-06T08:04:17.787Z,1.00
2022-09-06T08:09:33.963Z,1.80
2022-09-06T08:12:06.659Z,1.50
2022-09-06T08:14:34.454Z,1.30
2022-09-06T08:17:01.860Z,1.80
2022-09-06T08:19:29.234Z,1.58
2022-09-06T08:21:59.628Z,1.40
2022-09-06T08:24:27.238Z,1.40
2022-09-06T08:26:54.568Z,1.10
2022-09-06T08:29:21.813Z,1.58
2022-09-06T08:31:49.165Z,2.00
2022-09-06T08:34:16.571Z,1.20
2022-09-06T08:36:45.409Z,1.23
2022-09-06T08:39:12.875Z,1.45
2022-09-06T08:42:01.490Z,1.27
2022-09-06T08:44:57.256Z,1.50
2022-09-06T08:47:25.200Z,1.77
2022-09-06T08:49:57.565Z,1.10
2022-09-06T08:52:54.353Z,2.55
2022-09-06T08:55:31.315Z,1.35
2022-09-06T08:58:17.496Z,1.10
2022-09-06T09:00:53.281Z,1.40
2022-09-06T09:03:25.973Z,1.20
2022-09-06T09:08:26.001Z,1.40
2022-09-06T09:10:53.273Z,1.13
2022-09-06T09:13:27.834Z,1.50
2022-09-06T09:15:55.306Z,1.45
2022-09-06T09:18:25.862Z,1.52
2022-09-06T09:20:53.691Z,1.98
2022-09-06T09:23:20.993Z,1.60
2022-09-06T09:25:49.252Z,1.10
2022-09-06T09:28:18.635Z,1.55
2022-09-06T09:30:51.014Z,1.17
2022-09-06T09:33:35.817Z,1.20
2022-09-06T09:36:06.409Z,1.60
2022-09-06T09:38:36.907Z,1.33
2022-09-06T09:41:06.585Z,1.00
2022-09-06T09:43:42.991Z,1.45
2022-09-06T09:46:15.218Z,0.93
2022-09-06T09:48:45.798Z,1.35
2022-09-06T09:51:26.114Z,1.45
2022-09-06T09:53:58.684Z,1.15
2022-09-06T09:56:31.505Z,2.00
2022-09-06T09:58:59.194Z,1.42
2022-09-06T10:01:28.103Z,1.70
2022-09-06T10:09:37.347Z,1.63
2022-09-06T10:12:04.939Z,1.00
2022-09-06T10:14:34.084Z,1.40
2022-09-06T10:17:01.418Z,1.02
2022-09-06T10:19:34.551Z,1.38
2022-09-06T10:22:04.652Z,1.40
2022-09-06T10:24:39.138Z,1.65
2022-09-06T10:27:07.188Z,1.50
2022-09-06T10:29:53.039Z,1.30
2022-09-06T10:32:30.356Z,0.98
2022-09-06T10:35:18.456Z,1.17
2022-09-06T10:37:51.189Z,1.50
2022-09-06T10:40:31.145Z,2.30
2022-09-06T10:43:00.469Z,1.63
2022-09-06T10:45:33.768Z,1.50
2022-09-06T10:48:04.781Z,1.65
2022-09-06T10:50:52.245Z,1.77
2022-09-06T10:53:22.341Z,1.83
2022-09-06T10:55:51.097Z,1.75
2022-09-06T10:58:23.465Z,1.80
2022-09-06T11:00:52.135Z,1.88
2022-09-06T11:06:21.201Z,1.45
2022-09-06T11:09:00.346Z,1.38
2022-09-06T11:11:35.500Z,2.45
2022-09-06T11:14:06.815Z,1.83
2022-09-06T11:16:39.585Z,1.27
2022-09-06T11:19:10.001Z,1.23
2022-09-06T11:21:59.197Z,1.10
2022-09-06T11:24:44.674Z,2.55
2022-09-06T11:27:13.753Z,2.78
2022-09-06T11:29:42.592Z,8.20
2022-09-06T11:32:28.801Z,5.72
2022-09-06T11:34:57.516Z,1.20
2022-09-06T11:37:27.265Z,2.17
2022-09-06T11:42:54.812Z,0.93
2022-09-06T11:45:42.422Z,0.90
2022-09-06T11:48:33.875Z,1.10
2022-09-06T11:51:10.900Z,0.90
2022-09-06T11:53:50.443Z,2.75
2022-09-06T11:56:26.739Z,1.40
2022-09-06T11:59:00.433Z,1.20
2022-09-06T12:01:27.713Z,0.98
2022-09-06T12:06:35.578Z,1.85
2022-09-06T12:09:03.595Z,1.00
2022-09-06T12:11:44.343Z,1.20
2022-09-06T12:14:47.423Z,1.17
2022-09-06T12:17:14.657Z,1.38
2022-09-06T12:19:45.072Z,1.50
2022-09-06T12:22:27.266Z,1.88
2022-09-06T12:24:57.284Z,2.63
2022-09-06T12:27:26.946Z,1.02
2022-09-06T12:29:59.303Z,1.27
2022-09-06T12:32:28.921Z,2.28
2022-09-06T12:37:54.641Z,1.30
2022-09-06T12:40:23.027Z,1.30
2022-09-06T12:42:51.261Z,3.25
2022-09-06T12:45:19.098Z,1.90
2022-09-06T12:47:46.330Z,2.03
2022-09-06T12:50:13.696Z,1.77
2022-09-06T12:52:51.975Z,1.90
2022-09-06T12:55:22.270Z,2.35
2022-09-06T12:57:51.347Z,1.63
2022-09-06T13:00:19.418Z,1.50
2022-09-06T13:02:55.423Z,1.48
2022-09-06T13:05:23.044Z,1.70
2022-09-06T13:07:56.604Z,1.85
2022-09-06T13:10:26.127Z,1.52
2022-09-06T13:12:54.109Z,1.42
2022-09-06T13:15:28.649Z,1.20
2022-09-06T13:18:16.584Z,1.20
2022-09-06T13:20:43.921Z,2.28
2022-09-06T13:23:12.420Z,1.88
2022-09-06T13:25:50.202Z,1.63
2022-09-06T13:28:31.008Z,1.60
2022-09-06T13:31:09.441Z,2.30
2022-09-06T13:33:37.775Z,1.45
2022-09-06T13:36:14.151Z,1.92
2022-09-06T13:38:45.547Z,8.50
2022-09-06T13:41:28.114Z,8.75
2022-09-06T13:43:59.791Z,8.27
2022-09-06T13:46:27.114Z,6.93
2022-09-06T13:48:54.904Z,5.28
2022-09-06T13:51:22.153Z,9.60
2022-09-06T13:53:49.507Z,6.25
2022-09-06T13:56:17.039Z,4.07
2022-09-06T13:58:45.192Z,4.32
2022-09-06T14:01:14.252Z,6.40
2022-09-06T14:03:42.765Z,5.95
2022-09-06T14:06:10.696Z,6.57
2022-09-06T14:09:05.390Z,4.90
2022-09-06T14:11:26.658Z,2.90
2022-09-06T14:13:53.985Z,3.88
2022-09-06T14:16:21.714Z,3.13
2022-09-06T14:18:49.074Z,4.10
2022-09-06T14:21:16.571Z,0.90
2022-09-06T14:23:44.076Z,2.30
2022-09-06T14:26:13.358Z,2.30
2022-09-06T14:28:40.581Z,1.88
2022-09-06T14:31:15.272Z,2.85
2022-09-06T14:33:42.674Z,3.03
2022-09-06T14:36:13.967Z,2.08
2022-09-06T14:38:41.708Z,1.83
2022-09-06T14:41:09.608Z,1.65
2022-09-06T14:43:37.325Z,1.30
2022-09-06T14:46:05.456Z,1.67
2022-09-06T14:48:32.921Z,1.55
2022-09-06T14:51:02.399Z,1.25
2022-09-06T14:53:40.355Z,1.73
2022-09-06T14:56:08.525Z,2.00
2022-09-06T14:58:38.008Z,1.85
2022-09-06T15:01:13.385Z,1.80
2022-09-06T15:03:41.955Z,3.85
2022-09-06T15:06:09.720Z,1.63
2022-09-06T15:08:37.935Z,1.70
2022-09-06T15:11:07.938Z,1.60
2022-09-06T15:13:37.258Z,1.60
2022-09-06T15:16:08.158Z,1.40
2022-09-06T15:18:35.478Z,1.53
2022-09-06T15:21:13.252Z,0.90
2022-09-06T15:23:41.227Z,1.48
2022-09-06T15:26:08.936Z,1.63
2022-09-06T15:28:37.083Z,1.33
2022-09-06T15:31:04.792Z,1.67
2022-09-06T15:33:32.821Z,1.20
2022-09-06T15:36:06.335Z,1.13
2022-09-06T15:38:37.606Z,1.45
2022-09-06T15:41:08.232Z,1.20
2022-09-06T15:43:36.569Z,1.13
2022-09-06T15:46:04.355Z,1.23
2022-09-06T15:48:40.057Z,1.60
2022-09-06T15:51:07.356Z,1.98
2022-09-06T15:53:34.677Z,1.38
2022-09-06T15:56:02.674Z,1.20
2022-09-06T15:58:30.381Z,1.50
2022-09-06T16:01:24.022Z,1.40
2022-09-06T16:03:55.287Z,1.10
2022-09-06T16:06:28.014Z,1.65
2022-09-06T16:09:03.400Z,1.40
2022-09-06T16:11:32.642Z,1.23
2022-09-06T16:13:59.901Z,1.30
2022-09-06T16:16:27.213Z,1.65
2022-09-06T16:18:54.464Z,1.38
2022-09-06T16:21:26.366Z,1.35
2022-09-06T16:24:00.851Z,2.75
2022-09-06T16:26:29.852Z,1.45
2022-09-06T16:28:57.126Z,1.02
2022-09-06T16:31:24.737Z,2.17
2022-09-06T16:33:53.669Z,1.88
2022-09-06T16:36:22.526Z,1.20
2022-09-06T16:38:50.262Z,1.38
2022-09-06T16:41:17.605Z,1.75
2022-09-06T16:43:45.290Z,1.70
2022-09-06T16:46:13.008Z,1.10
2022-09-06T16:48:40.655Z,1.80
2022-09-06T16:51:15.377Z,1.30
2022-09-06T16:53:43.930Z,1.55
2022-09-06T16:56:12.481Z,1.48
2022-09-06T16:58:39.790Z,1.67
2022-09-06T17:01:09.396Z,1.02
2022-09-06T17:03:37.413Z,1.08
2022-09-06T17:06:05.107Z,1.30
2022-09-06T17:08:33.102Z,1.20
2022-09-06T17:11:04.463Z,0.95
2022-09-06T17:13:32.158Z,0.80
2022-09-06T17:16:22.173Z,1.00
2022-09-06T17:18:49.951Z,0.90
2022-09-06T17:21:17.214Z,0.73
2022-09-06T17:23:44.644Z,0.88
2022-09-06T17:26:11.945Z,1.00
2022-09-06T17:28:40.736Z,0.73
2022-09-06T17:31:09.175Z,1.52
2022-09-06T17:33:37.108Z,1.20
2022-09-06T17:36:07.887Z,0.82
2022-09-06T17:38:35.474Z,1.30
2022-09-06T17:41:03.022Z,0.82
2022-09-06T17:43:30.661Z,0.90
2022-09-06T17:45:58.573Z,0.60
2022-09-06T17:48:27.837Z,0.73
2022-09-06T17:50:55.758Z,1.00
2022-09-06T17:53:23.533Z,1.00
2022-09-06T17:55:52.240Z,0.50
2022-09-06T17:58:20.070Z,1.08
2022-09-06T18:00:47.424Z,0.70
2022-09-06T18:03:14.717Z,0.88
2022-09-06T18:05:42.892Z,0.88
2022-09-06T18:08:11.145Z,0.80
2022-09-06T18:10:38.701Z,1.25
2022-09-06T18:13:06.567Z,0.90
2022-09-06T18:15:39.172Z,0.70
2022-09-06T18:20:33.649Z,1.33
2022-09-06T18:23:01.216Z,1.45
2022-09-06T18:25:29.174Z,1.40
2022-09-06T18:27:56.428Z,1.58
2022-09-06T18:30:23.728Z,1.63
2022-09-06T18:32:50.947Z,1.40
2022-09-06T18:35:18.328Z,0.65
2022-09-06T18:37:45.584Z,0.95
2022-09-06T18:40:12.886Z,1.38
2022-09-06T18:42:44.452Z,1.30
2022-09-06T18:45:11.797Z,1.30
2022-09-06T18:47:39.069Z,2.60
2022-09-06T18:50:08.005Z,3.40
2022-09-06T18:52:35.784Z,1.00
2022-09-06T18:55:03.023Z,0.98
2022-09-06T18:57:30.645Z,1.08
2022-09-06T18:59:58.112Z,0.88
2022-09-06T19:02:27.481Z,0.80
2022-09-06T19:04:55.999Z,1.58
2022-09-06T19:07:23.241Z,1.20
2022-09-06T19:09:50.543Z,0.70
2022-09-06T19:12:17.817Z,1.27
2022-09-06T19:14:45.176Z,0.70
2022-09-06T19:17:12.474Z,0.63
2022-09-06T19:19:39.702Z,0.52
2022-09-06T19:22:06.974Z,0.60
2022-09-06T19:24:34.392Z,0.90
2022-09-06T19:27:01.719Z,0.32
2022-09-06T19:29:28.963Z,0.57
2022-09-06T19:31:56.338Z,0.50
2022-09-06T19:34:23.831Z,0.60
2022-09-06T19:36:55.094Z,0.50
2022-09-06T19:39:22.483Z,0.98
2022-09-06T19:41:50.452Z,0.73
2022-09-06T19:44:18.456Z,0.73
2022-09-06T19:46:47.324Z,0.73
2022-09-06T19:49:16.039Z,1.10
2022-09-06T19:51:45.261Z,0.57
2022-09-06T19:54:13.097Z,0.60
2022-09-06T19:56:40.398Z,0.88
2022-09-06T19:59:08.794Z,0.70
2022-09-06T20:01:37.263Z,0.75
2022-09-06T20:04:06.953Z,1.25
2022-09-06T20:06:34.638Z,0.68
2022-09-06T20:09:02.619Z,0.85
2022-09-06T20:11:31.305Z,1.05
2022-09-06T20:13:59.452Z,0.95
2022-09-06T20:16:27.196Z,1.38
2022-09-06T20:18:59.007Z,1.00
2022-09-06T20:21:26.844Z,0.90
2022-09-06T20:23:55.448Z,1.00
2022-09-06T20:26:23.788Z,0.90
2022-09-06T20:28:58.247Z,0.90
2022-09-06T20:31:26.256Z,0.98
2022-09-06T20:33:53.620Z,0.88
2022-09-06T20:36:21.016Z,1.15
2022-09-06T20:38:48.742Z,1.00
2022-09-06T20:41:15.974Z,0.90
2022-09-06T20:43:43.400Z,1.25
2022-09-06T20:46:11.954Z,0.80
2022-09-06T20:48:44.236Z,0.93
2022-09-06T20:51:22.685Z,0.90
2022-09-06T20:53:54.248Z,0.90
2022-09-06T20:56:22.837Z,1.30
2022-09-06T20:58:50.974Z,0.73
2022-09-06T21:01:22.383Z,0.68
2022-09-06T21:03:51.436Z,0.85
2022-09-06T21:06:19.140Z,0.90
2022-09-06T21:08:46.401Z,0.60
2022-09-06T21:11:13.909Z,0.50
2022-09-06T21:13:41.268Z,0.70
2022-09-06T21:16:08.951Z,0.68
2022-09-06T21:18:36.665Z,0.57
2022-09-06T21:21:05.696Z,0.57
2022-09-06T21:23:35.580Z,0.40
2022-09-06T21:26:04.529Z,0.70
2022-09-06T21:28:32.986Z,0.70
2022-09-06T21:31:04.917Z,0.98
2022-09-06T21:33:33.195Z,0.65
2022-09-06T21:36:03.021Z,0.70
2022-09-06T21:38:31.427Z,0.68
2022-09-06T21:40:58.830Z,0.70
2022-09-06T21:43:26.334Z,0.82
2022-09-06T21:45:53.679Z,1.00
2022-09-06T21:48:20.979Z,0.70
2022-09-06T21:50:48.580Z,0.43
2022-09-06T21:53:16.319Z,0.60
2022-09-06T21:55:43.715Z,0.75
2022-09-06T21:58:12.093Z,0.93
2022-09-06T22:00:39.646Z,0.50
2022-09-06T22:03:07.358Z,0.52
2022-09-06T22:05:34.818Z,0.40
2022-09-06T22:08:02.162Z,0.50
2022-09-06T22:10:29.388Z,0.50
2022-09-06T22:12:56.643Z,0.77
2022-09-06T22:15:23.997Z,0.55
2022-09-06T22:17:51.228Z,0.60
2022-09-06T22:20:18.585Z,0.40
2022-09-06T22:22:46.182Z,0.80
2022-09-06T22:25:14.310Z,0.68
2022-09-06T22:27:41.685Z,0.70
2022-09-06T22:30:09.244Z,0.50
2022-09-06T22:32:37.040Z,1.10
2022-09-06T22:35:06.075Z,0.57
2022-09-06T22:37:33.818Z,0.60
2022-09-06T22:40:01.884Z,0.85
2022-09-06T22:42:29.583Z,0.70
2022-09-06T22:44:57.017Z,0.70
2022-09-06T22:47:24.376Z,0.88
2022-09-06T22:49:51.851Z,0.70
2022-09-06T22:52:19.179Z,0.60
2022-09-06T22:54:46.449Z,0.80
2022-09-06T22:57:13.874Z,0.57
2022-09-06T22:59:41.077Z,0.95
2022-09-06T23:02:08.360Z,0.75
2022-09-06T23:04:35.681Z,0.75
2022-09-06T23:07:03.599Z,0.68
2022-09-06T23:09:30.875Z,1.60
2022-09-06T23:11:58.079Z,1.00
2022-09-06T23:14:25.304Z,0.70
2022-09-06T23:16:52.561Z,0.75
2022-09-06T23:19:19.784Z,0.77
2022-09-06T23:21:47.055Z,0.70
2022-09-06T23:24:14.383Z,0.80
2022-09-06T23:26:41.693Z,0.85
2022-09-06T23:29:08.960Z,0.90
2022-09-06T23:31:36.440Z,1.05
2022-09-06T23:34:03.911Z,1.00
2022-09-06T23:36:31.647Z,1.17
2022-09-06T23:38:59.760Z,0.70
2022-09-06T23:41:27.058Z,1.30
2022-09-06T23:43:54.313Z,1.10
2022-09-06T23:46:21.645Z,0.93
2022-09-06T23:48:48.913Z,1.48
2022-09-06T23:51:16.168Z,1.42
2022-09-06T23:53:43.415Z,1.15
2022-09-06T23:56:10.966Z,1.33
2022-09-06T23:58:38.246Z,1.10
